LLUVIA / DATOS DE TEMPERATURA

Abril 2005

Fecha / Hora Temperatura (*F) Dew Point (*F) Humedad Relativa (%)
04/01/05 00:04 60.8 3.56 9.8
04/01/05 00:34 60.8 1.96 9.1
04/01/05 01:04 60.8 1.26 8.8
04/01/05 01:34 60.8 1.96 9.1
04/01/05 02:04 60.8 1.96 9.1
04/01/05 02:34 60.8 3.56 9.8
04/01/05 03:04 60.11 3.9 10.2
04/01/05 03:34 60.11 3.9 10.2
04/01/05 04:04 60.11 4.52 10.5
04/01/05 04:34 60.11 5.34 10.9
04/01/05 05:04 59.42 4 10.5
04/01/05 05:34 59.42 3.36 10.2
04/01/05 06:04 59.42 4 10.5
04/01/05 06:34 60.11 4.52 10.5
04/01/05 07:04 59.42 4.8 10.9
04/01/05 07:34 60.11 3.04 9.8
04/01/05 08:04 60.11 0 8.5
04/01/05 08:34 60.11 1.44 9.1
04/01/05 09:04 60.8 0.52 8.5
04/01/05 09:34 62.17 0.52 8.1
04/01/05 10:04 62.85 0.24 7.8
04/01/05 10:34 64.22 -0.44 7.2
04/01/05 11:04 65.59 0.56 7.2
04/01/05 11:34 66.96 0.68 6.9
04/01/05 12:04 69.02 -1.14 5.9
04/01/05 12:34 70.39 -0.16 5.9
04/01/05 13:04 71.08 -0.76 5.6
04/01/05 13:34 71.77 -2.66 5
04/01/05 14:04 73.15 -0.46 5.3
04/01/05 14:34 73.15 -0.46 5.3
04/01/05 15:04 73.15 0.72 5.6
04/01/05 15:34 73.84 0.04 5.3
04/01/05 16:04 73.84 -1.2 5
04/01/05 16:34 74.53 -6.96 3.7
04/01/05 17:04 73.84 -4.82 4.2
04/01/05 17:34 74.53 -5.88 3.9
04/01/05 18:04 73.84 -6.34 3.9
04/01/05 18:34 71.08 -1.92 5.3
04/01/05 19:04 71.08 1.4 6.2
04/01/05 19:34 66.96 -2.62 5.9
04/01/05 20:04 66.28 1.08 7.2
04/01/05 20:34 66.28 1.08 7.2
04/01/05 21:04 66.28 1.94 7.5
04/01/05 21:34 65.59 2.28 7.8
04/01/05 22:04 64.91 2.58 8.1
04/01/05 22:34 64.91 4.36 8.8
04/01/05 23:04 64.22 3.1 8.5
04/01/05 23:34 64.91 2.58 8.1
04/02/05 00:04 64.22 3.84 8.8
04/02/05 00:34 64.22 3.84 8.8
04/02/05 01:04 59.42 8.14 12.7
04/02/05 01:34 55.97 10.78 16.2
04/02/05 02:04 53.89 11.32 17.9
04/02/05 02:34 53.19 14.14 20.8
04/02/05 03:04 51.79 15.74 23.5
04/02/05 03:34 51.08 16.38 24.8
04/02/05 04:04 51.08 16.84 25.3
04/02/05 04:34 51.08 16.38 24.8
04/02/05 05:04 48.25 18.32 30
04/02/05 05:34 58.73 11.3 15
04/02/05 06:04 60.11 10.04 13.5
04/02/05 06:34 60.8 9.22 12.7
04/02/05 07:04 60.11 10.68 13.9
04/02/05 07:34 58.04 10.74 15
04/02/05 08:04 58.04 11.9 15.8
04/02/05 08:34 61.48 9.76 12.7
04/02/05 09:04 64.91 10.42 11.6
04/02/05 09:34 66.96 11.44 11.3
04/02/05 10:04 71.08 11.4 9.8
04/02/05 10:34 73.15 8.72 8.1
04/02/05 11:04 74.53 8.04 7.5
04/02/05 11:34 75.92 5.92 6.5
04/02/05 12:04 77.31 3.68 5.6
04/02/05 12:34 79.41 2.74 5
04/02/05 13:04 81.53 0.48 4.2
04/02/05 13:34 83.67 0.38 3.9
04/02/05 14:04 85.83 1.86 3.9
04/02/05 14:34 84.38 2.46 4.2
04/02/05 15:04 86.55 3.94 4.2
04/02/05 15:34 86.55 6.84 4.8
04/02/05 16:04 85.1 9.22 5.6
04/02/05 16:34 82.95 9.94 6.2
04/02/05 17:04 81.53 11.32 6.9
04/02/05 17:34 79.41 9.76 6.9
04/02/05 18:04 76.62 6.42 6.5
04/02/05 18:34 74.53 7.14 7.2
04/02/05 19:04 72.46 10.04 8.8
04/02/05 19:34 70.39 10.88 9.8
04/02/05 20:04 68.33 9.3 9.8
04/02/05 20:34 66.28 12.24 12
04/02/05 21:04 64.22 13.3 13.5
04/02/05 21:34 62.85 14.6 15
04/02/05 22:04 60.8 17.48 18.3
04/02/05 22:34 59.42 18.86 20.4
04/02/05 23:04 59.42 20.74 22.1
04/02/05 23:34 58.04 22.76 25.3
04/03/05 00:04 58.73 21.1 23
04/03/05 00:34 56.66 23.2 27.1
04/03/05 01:04 55.28 24.04 29.5
04/03/05 01:34 53.89 24.32 31.4
04/03/05 02:04 55.28 22.02 27.1
04/03/05 02:34 55.28 23.62 29
04/03/05 03:04 55.97 23.04 27.6
04/03/05 03:34 55.28 24.74 30.4
04/03/05 04:04 56.66 25.24 29.5
04/03/05 04:34 55.28 26.28 32.4
04/03/05 05:04 55.28 25.9 31.9
04/03/05 05:34 53.89 27.12 35.3
04/03/05 06:04 54.58 29.08 37.3
04/03/05 06:34 53.89 23.92 30.9
04/03/05 07:04 54.58 23.82 30
04/03/05 07:34 53.89 22.82 29.5
04/03/05 08:04 54.58 26.32 33.3
04/03/05 08:34 55.28 26.64 32.9
04/03/05 09:04 57.35 25.84 29.5
04/03/05 09:34 58.73 25.86 28.1
04/03/05 10:04 60.11 26.16 27.1
04/03/05 10:34 60.8 24.62 24.8
04/03/05 11:04 61.48 25.2 24.8
04/03/05 11:34 62.17 25.4 24.4
04/03/05 12:04 63.54 23.74 21.7
04/03/05 12:34 64.91 22.94 20
04/03/05 13:04 66.28 21.44 17.9
04/03/05 13:34 67.65 19.64 15.8
04/03/05 14:04 69.71 18.3 13.9
04/03/05 14:34 73.15 13.88 10.2
04/03/05 15:04 73.84 20.88 13.5
04/03/05 15:34 72.46 29.18 20
04/03/05 16:04 71.77 25.92 17.9
04/03/05 16:34 71.77 34.4 25.3
04/03/05 17:04 75.22 35.46 23.5
04/03/05 17:34 73.15 39.46 29.5
04/03/05 18:04 70.39 37.52 30
04/03/05 18:34 69.02 38.68 32.9
04/03/05 19:04 66.96 38.66 35.3
04/03/05 19:34 63.54 41.5 44.4
04/03/05 20:04 60.8 42.88 51.6
04/03/05 20:34 58.04 43.78 58.9
04/03/05 21:04 55.97 45.42 67.6
04/03/05 21:34 54.58 45.78 72.1
04/03/05 22:04 53.19 46.18 77
04/03/05 22:34 52.49 47.38 82.7
04/03/05 23:04 51.08 46.3 83.6
04/03/05 23:34 50.38 46.04 85
04/04/05 00:04 48.96 44.66 85
04/04/05 00:34 48.25 45.02 88.5
04/04/05 01:04 46.82 44.44 91.4
04/04/05 01:34 46.82 45.46 95
04/04/05 02:04 46.1 45.36 97.2
04/04/05 02:34 48.25 48.24 100
04/04/05 03:04 48.96 48.7 99
04/04/05 03:34 48.96 47.68 95.3
04/04/05 04:04 48.25 46.66 94.2
04/04/05 04:34 48.25 46.54 93.8
04/04/05 05:04 46.82 45.02 93.4
04/04/05 05:34 45.38 44.12 95.3
04/04/05 06:04 46.82 45.24 94.2
04/04/05 06:34 46.82 44.68 92.2
04/04/05 07:04 44.65 42.98 93.8
04/04/05 07:34 43.92 42.78 95.7
04/04/05 08:04 43.92 42.88 96.1
04/04/05 08:34 46.1 43.96 92.2
04/04/05 09:04 48.96 44.22 83.6
04/04/05 09:34 50.38 42.8 75.1
04/04/05 10:04 52.49 43.04 70.1
04/04/05 10:34 53.89 41.8 63.5
04/04/05 11:04 56.66 40.56 54.7
04/04/05 11:34 58.73 39.38 48.5
04/04/05 12:04 60.8 38.72 43.9
04/04/05 12:34 64.22 36.96 36.3
04/04/05 13:04 66.96 33.28 28.5
04/04/05 13:34 70.39 29.9 22.1
04/04/05 14:04 71.77 29.56 20.8
04/04/05 14:34 73.84 28.14 18.3
04/04/05 15:04 73.84 27.6 17.9
04/04/05 15:34 75.22 27.48 17
04/04/05 16:04 75.92 24.38 14.6
04/04/05 16:34 75.92 26.86 16.2
04/04/05 17:04 75.92 30.88 19.1
04/04/05 17:34 74.53 28.7 18.3
04/04/05 18:04 73.15 31.28 21.3
04/04/05 18:34 71.08 32.92 24.4
04/04/05 19:04 68.33 37.3 31.9
04/04/05 19:34 64.91 41.84 42.9
04/04/05 20:04 61.48 44.8 54.2
04/04/05 20:34 58.73 45.56 61.5
04/04/05 21:04 57.35 46.54 67.1
04/04/05 21:34 55.28 46.3 71.7
04/04/05 22:04 53.89 46.54 76.1
04/04/05 22:34 53.19 47.16 79.9
04/04/05 23:04 53.19 46.98 79.4
04/04/05 23:34 52.49 46.64 80.4
04/05/05 00:04 51.79 46.7 82.7
04/05/05 00:34 51.08 46.74 85
04/05/05 01:04 49.67 46.54 88.9
04/05/05 01:34 48.25 45.64 90.6
04/05/05 02:04 47.53 45.62 93
04/05/05 02:34 47.53 45.84 93.8
04/05/05 03:04 46.82 45.12 93.8
04/05/05 03:34 46.82 45.12 93.8
04/05/05 04:04 45.38 43.7 93.8
04/05/05 04:34 51.08 34.16 52.1
04/05/05 05:04 56.66 27.5 32.4
04/05/05 05:34 58.73 26.2 28.5
04/05/05 06:04 59.42 26.44 28.1
04/05/05 06:34 58.73 26.62 29
04/05/05 07:04 58.73 25.86 28.1
04/05/05 07:34 58.73 25.42 27.6
04/05/05 08:04 59.42 24.76 26.2
04/05/05 08:34 60.11 23.16 23.9
04/05/05 09:04 62.17 21.6 20.8
04/05/05 09:34 63.54 19.22 17.9
04/05/05 10:04 64.91 19.12 17
04/05/05 10:34 65.59 17.98 15.8
04/05/05 11:04 66.96 16.12 13.9
04/05/05 11:34 67.65 14.6 12.7
04/05/05 12:04 68.33 13.86 12
04/05/05 12:34 70.39 14.08 11.3
04/05/05 13:04 71.08 12.3 10.2
04/05/05 13:34 69.71 14.14 11.6
04/05/05 14:04 70.39 13.26 10.9
04/05/05 14:34 70.39 12.42 10.5
04/05/05 15:04 71.77 11.22 9.5
04/05/05 15:34 73.84 7.52 7.5
04/05/05 16:04 73.15 7.02 7.5
04/05/05 16:34 76.62 -0.1 4.8
04/05/05 17:04 77.31 -6.8 3.4
04/05/05 17:34 76.62 -7.26 3.4
04/05/05 18:04 77.31 -8.68 3.1
04/05/05 18:34 73.84 -3.4 4.5
04/05/05 19:04 72.46 -7.3 3.9
04/05/05 19:34 69.02 -3.38 5.3
04/05/05 20:04 67.65 -4.36 5.3
04/05/05 20:34 66.28 -2.08 6.2
04/05/05 21:04 66.28 -2.08 6.2
04/05/05 21:34 65.59 -3.62 5.9
04/05/05 22:04 62.17 1.54 8.5
04/05/05 22:34 59.42 4.8 10.9
04/05/05 23:04 58.04 5.82 12
04/05/05 23:34 56.66 9.04 14.6
04/06/05 00:04 58.04 9.68 14.3
04/06/05 00:34 60.11 7.44 12
04/06/05 01:04 60.8 9.22 12.7
04/06/05 01:34 62.17 11.66 13.5
04/06/05 02:04 61.48 13.5 15
04/06/05 02:34 58.73 13.58 16.6
04/06/05 03:04 64.91 5.08 9.1
04/06/05 03:34 66.28 5.38 8.8
04/06/05 04:04 66.28 9.26 10.5
04/06/05 04:34 64.91 9.84 11.3
04/06/05 05:04 65.59 8.1 10.2
04/06/05 05:34 66.28 7.06 9.5
04/06/05 06:04 66.28 6.12 9.1
04/06/05 06:34 66.28 6.12 9.1
04/06/05 07:04 66.28 6.12 9.1
04/06/05 07:34 66.28 6.12 9.1
04/06/05 08:04 66.96 5.16 8.5
04/06/05 08:34 67.65 5.66 8.5
04/06/05 09:04 69.02 5.64 8.1
04/06/05 09:34 70.39 4.98 7.5
04/06/05 10:04 71.08 4.6 7.2
04/06/05 10:34 73.15 5.2 6.9
04/06/05 11:04 74.53 3.88 6.2
04/06/05 11:34 76.62 3.18 5.6
04/06/05 12:04 77.31 0.38 4.8
04/06/05 12:34 80.12 0.98 4.5
04/06/05 13:04 80.12 0.98 4.5
04/06/05 13:34 81.53 0.48 4.2
04/06/05 14:04 82.95 -0.1 3.9
04/06/05 14:34 84.38 -0.24 3.7
04/06/05 15:04 82.95 -0.1 3.9
04/06/05 15:34 86.55 -2.52 3.1
04/06/05 16:04 85.1 1.36 3.9
04/06/05 16:34 85.83 -1.06 3.4
04/06/05 17:04 84.38 -0.24 3.7
04/06/05 17:34 85.83 -3 3.1
04/06/05 18:04 87.28 -2.02 3.1
04/06/05 18:34 85.83 3.44 4.2
04/06/05 19:04 82.24 4.72 5
04/06/05 19:34 79.41 8.44 6.5
04/06/05 20:04 75.22 13.84 9.5
04/06/05 20:34 72.46 14 10.5
04/06/05 21:04 71.08 14.62 11.3
04/06/05 21:34 70.39 14.08 11.3
04/06/05 22:04 69.02 14.38 12
04/06/05 22:34 64.91 16.84 15.4
04/06/05 23:04 64.22 17.46 16.2
04/06/05 23:34 61.48 19.52 19.5
04/07/05 00:04 60.8 20.46 20.8
04/07/05 00:34 59.42 21.26 22.6
04/07/05 01:04 58.73 22 23.9
04/07/05 01:34 57.35 22.18 25.3
04/07/05 02:04 56.66 23.2 27.1
04/07/05 02:34 58.04 22.28 24.8
04/07/05 03:04 58.04 22.76 25.3
04/07/05 03:34 55.97 23.82 28.5
04/07/05 04:04 55.97 24.22 29
04/07/05 04:34 53.89 25.06 32.4
04/07/05 05:04 53.19 25.82 34.3
04/07/05 05:34 52.49 26.88 36.8
04/07/05 06:04 53.89 26.78 34.8
04/07/05 06:34 51.79 28.76 40.8
04/07/05 07:04 51.79 28.46 40.3
04/07/05 07:34 51.08 29.36 42.9
04/07/05 08:04 51.08 28.12 40.8
04/07/05 08:34 56.66 28.16 33.3
04/07/05 09:04 60.8 29.22 30
04/07/05 09:34 67.65 25.68 20.4
04/07/05 10:04 71.77 21.72 15
04/07/05 10:34 75.92 9.94 7.8
04/07/05 11:04 79.41 7.4 6.2
04/07/05 11:34 81.53 6.68 5.6
04/07/05 12:04 82.95 5.22 5
04/07/05 12:34 84.38 8.72 5.6
04/07/05 13:04 88.01 4.94 4.2
04/07/05 13:34 87.28 1.72 3.7
04/07/05 14:04 87.28 5.94 4.5
04/07/05 14:34 88.01 6.44 4.5
04/07/05 15:04 88.74 6.94 4.5
04/07/05 15:34 88.74 8.36 4.8
04/07/05 16:04 87.28 13.04 6.2
04/07/05 16:34 85.1 8 5.3
04/07/05 17:04 88.01 4.94 4.2
04/07/05 17:34 84.38 10.98 6.2
04/07/05 18:04 82.95 8.84 5.9
04/07/05 18:34 81.53 9.98 6.5
04/07/05 19:04 78.71 22.68 12.4
04/07/05 19:34 75.22 7.64 7.2
04/07/05 20:04 71.77 18.54 13.1
04/07/05 20:34 69.71 24.24 17.9
04/07/05 21:04 66.96 24.64 20
04/07/05 21:34 64.22 28.4 25.7
04/07/05 22:04 62.85 26.36 24.8
04/07/05 22:34 61.48 26.06 25.7
04/07/05 23:04 60.8 25.94 26.2
04/07/05 23:34 60.8 25.94 26.2
04/08/05 00:04 58.73 26.62 29
04/08/05 00:34 56.66 28.88 34.3
04/08/05 01:04 57.35 14.66 18.3
04/08/05 01:34 57.35 20.44 23.5
04/08/05 02:04 53.89 31.24 41.8
04/08/05 02:34 52.49 31.46 44.4
04/08/05 03:04 52.49 24.84 33.8
04/08/05 03:34 52.49 29.1 40.3
04/08/05 04:04 52.49 31.46 44.4
04/08/05 04:34 51.08 31.86 47.5
04/08/05 05:04 50.38 34.98 55.3
04/08/05 05:34 48.96 37.38 64.1
04/08/05 06:04 48.25 39.2 70.7
04/08/05 06:34 47.53 41.36 79
04/08/05 07:04 46.82 42 83.2
04/08/05 07:34 46.1 41.3 83.2
04/08/05 08:04 48.25 42.64 80.8
04/08/05 08:34 49.67 42.64 76.6
04/08/05 09:04 53.19 42.18 66.1
04/08/05 09:34 55.28 38.8 53.7
04/08/05 10:04 57.35 36.72 45.9
04/08/05 10:34 59.42 36.54 42.3
04/08/05 11:04 62.17 34.44 35.3
04/08/05 11:34 65.59 32.52 29
04/08/05 12:04 66.96 34.56 30
04/08/05 12:34 69.71 30.84 23.5
04/08/05 13:04 71.08 29.58 21.3
04/08/05 13:34 73.15 26.5 17.5
04/08/05 14:04 73.84 26.36 17
04/08/05 14:34 76.62 22.34 13.1
04/08/05 15:04 77.31 27.38 15.8
04/08/05 15:34 78.71 24.7 13.5
04/08/05 16:04 78.01 27.32 15.4
04/08/05 16:34 76.62 32.6 20
04/08/05 17:04 75.92 33 20.8
04/08/05 17:34 74.53 29.22 18.7
04/08/05 18:04 73.15 32.2 22.1
04/08/05 18:34 71.08 33.32 24.8
04/08/05 19:04 68.33 32.82 26.7
04/08/05 19:34 65.59 36.74 34.3
04/08/05 20:04 62.17 39.38 42.9
04/08/05 20:34 60.8 39 44.4
04/08/05 21:04 59.42 38.88 46.4
04/08/05 21:34 58.04 40.34 51.6
04/08/05 22:04 56.66 41.76 57.3
04/08/05 22:34 56.66 41.08 55.8
04/08/05 23:04 55.28 40.46 57.3
04/08/05 23:34 53.89 37.74 54.2
04/09/05 00:04 53.19 37.34 54.7
04/09/05 00:34 54.58 37.68 52.7
04/09/05 01:04 53.19 38.28 56.8
04/09/05 01:34 52.49 36.44 54.2
04/09/05 02:04 51.79 35.56 53.7
04/09/05 02:34 49.67 35.22 57.3
04/09/05 03:04 48.25 36.06 62.5
04/09/05 03:34 48.96 37.14 63.5
04/09/05 04:04 48.96 37.58 64.6
04/09/05 04:34 49.67 40.16 69.6
04/09/05 05:04 50.38 41.92 72.6
04/09/05 05:34 50.38 43.32 76.6
04/09/05 06:04 50.38 44.26 79.4
04/09/05 06:34 49.67 44.18 81.3
04/09/05 07:04 48.96 42.24 77.5
04/09/05 07:34 49.67 39.22 67.1
04/09/05 08:04 50.38 38.48 63.5
04/09/05 08:34 50.38 38.48 63.5
04/09/05 09:04 52.49 36.22 53.7
04/09/05 09:34 53.19 34.56 49
04/09/05 10:04 53.19 34.56 49
04/09/05 10:34 54.58 32.8 43.4
04/09/05 11:04 56.66 28.52 33.8
04/09/05 11:34 59.42 28.02 30
04/09/05 12:04 60.8 23.34 23.5
04/09/05 12:34 62.85 21.24 20
04/09/05 13:04 64.22 19.78 17.9
04/09/05 13:34 64.91 22.94 20
04/09/05 14:04 66.28 22.98 19.1
04/09/05 14:34 66.96 24.64 20
04/09/05 15:04 67.65 25.2 20
04/09/05 15:34 66.96 25.12 20.4
04/09/05 16:04 66.96 25.58 20.8
04/09/05 16:34 66.96 27.04 22.1
04/09/05 17:04 65.59 29.56 25.7
04/09/05 17:34 64.22 30.14 27.6
04/09/05 18:04 62.85 31.72 30.9
04/09/05 18:34 60.8 31.1 32.4
04/09/05 19:04 60.11 30.88 32.9
04/09/05 19:34 56.66 36.1 45.9
04/09/05 20:04 54.58 38.4 54.2
04/09/05 20:34 53.19 38.52 57.3
04/09/05 21:04 51.79 39.2 62
04/09/05 21:34 51.08 41.32 69.1
04/09/05 22:04 50.38 41.6 71.7
04/09/05 22:34 49.67 41.78 74.1
04/09/05 23:04 48.96 42.42 78
04/09/05 23:34 48.25 42.06 79
04/10/05 00:04 48.25 42.34 79.9
04/10/05 00:34 47.53 42.1 81.3
04/10/05 01:04 47.53 42.1 81.3
04/10/05 01:34 46.82 42 83.2
04/10/05 02:04 46.1 41.42 83.6
04/10/05 02:34 45.38 41.14 85
04/10/05 03:04 45.38 41.26 85.4
04/10/05 03:34 46.1 41.7 84.5
04/10/05 04:04 46.1 41.58 84.1
04/10/05 04:34 44.65 40.7 85.9
04/10/05 05:04 44.65 40.94 86.7
04/10/05 05:34 43.92 40.48 87.6
04/10/05 06:04 41.72 39.3 91
04/10/05 06:34 40.23 38.58 93.8
04/10/05 07:04 39.48 38.06 94.6
04/10/05 07:34 40.23 38.8 94.6
04/10/05 08:04 41.72 39.74 92.6
04/10/05 08:34 43.92 40.6 88
04/10/05 09:04 49.67 41.78 74.1
04/10/05 09:34 57.35 41.96 56.3
04/10/05 10:04 59.42 37.76 44.4
04/10/05 10:34 64.91 19.8 17.5
04/10/05 11:04 66.96 14.06 12.7
04/10/05 11:34 68.33 13.08 11.6
04/10/05 12:04 69.71 11.24 10.2
04/10/05 12:34 71.77 12.82 10.2
04/10/05 13:04 73.15 11.3 9.1
04/10/05 13:34 76.62 10.44 7.8
04/10/05 14:04 75.22 10.26 8.1
04/10/05 14:34 78.71 7.94 6.5
04/10/05 15:04 78.01 7.44 6.5
04/10/05 15:34 80.12 10.28 6.9
04/10/05 16:04 79.41 8.44 6.5
04/10/05 16:34 80.12 17.54 9.5
04/10/05 17:04 80.12 13.04 7.8
04/10/05 17:34 80.12 14.98 8.5
04/10/05 18:04 76.62 13.92 9.1
04/10/05 18:34 73.15 15.38 10.9
04/10/05 19:04 71.08 15.98 12
04/10/05 19:34 68.33 18.34 14.6
04/10/05 20:04 64.91 19.12 17
04/10/05 20:34 63.54 19.74 18.3
04/10/05 21:04 62.85 20.66 19.5
04/10/05 21:34 61.48 20.12 20
04/10/05 22:04 59.42 21.26 22.6
04/10/05 22:34 58.04 22.28 24.8
04/10/05 23:04 55.28 22.46 27.6
04/10/05 23:34 55.97 22.26 26.7
04/11/05 00:04 55.28 22.46 27.6
04/11/05 00:34 53.89 23.92 30.9
04/11/05 01:04 52.49 24.48 33.3
04/11/05 01:34 52.49 24.2 32.9
04/11/05 02:04 48.96 24.38 37.8
04/11/05 02:34 49.67 24.38 36.8
04/11/05 03:04 49.67 25.34 38.3
04/11/05 03:34 48.96 23.76 36.8
04/11/05 04:04 48.96 23.42 36.3
04/11/05 04:34 48.25 23.44 37.3
04/11/05 05:04 45.38 23.84 42.3
04/11/05 05:34 45.38 25.8 45.9
04/11/05 06:04 46.82 25.16 42.3
04/11/05 06:34 45.38 24.74 43.9
04/11/05 07:04 45.38 24.74 43.9
04/11/05 07:34 44.65 25.96 47.5
04/11/05 08:04 46.82 25.16 42.3
04/11/05 08:34 49.67 25.64 38.8
04/11/05 09:04 58.04 26.84 30
04/11/05 09:34 66.96 12.78 12
04/11/05 10:04 68.33 9.3 9.8
04/11/05 10:34 69.71 6.16 8.1
04/11/05 11:04 71.08 4.6 7.2
04/11/05 11:34 73.15 3.9 6.5
04/11/05 12:04 74.53 2.82 5.9
04/11/05 12:34 76.62 2 5.3
04/11/05 13:04 78.01 0.88 4.8
04/11/05 13:34 79.41 1.86 4.8
04/11/05 14:04 78.71 1.36 4.8
04/11/05 14:34 78.71 0 4.5
04/11/05 15:04 80.82 4.98 5.3
04/11/05 15:34 80.82 2.84 4.8
04/11/05 16:04 80.82 2.84 4.8
04/11/05 16:34 80.12 -11.96 2.4
04/11/05 17:04 78.71 1.36 4.8
04/11/05 17:34 77.31 4.82 5.9
04/11/05 18:04 79.41 1.86 4.8
04/11/05 18:34 74.53 6.2 6.9
04/11/05 19:04 73.84 6.64 7.2
04/11/05 19:34 71.08 6.34 7.8
04/11/05 20:04 69.02 3.98 7.5
04/11/05 20:34 67.65 1.18 6.9
04/11/05 21:04 67.65 -4.36 5.3
04/11/05 21:34 66.96 -3.72 5.6
04/11/05 22:04 66.96 -1.58 6.2
04/11/05 22:34 63.54 2.58 8.5
04/11/05 23:04 62.17 4.6 9.8
04/11/05 23:34 60.8 6.66 11.3
04/12/05 00:04 60.11 6.68 11.6
04/12/05 00:34 60.11 10.68 13.9
04/12/05 01:04 58.04 11.9 15.8
04/12/05 01:34 59.42 13.02 15.8
04/12/05 02:04 57.35 15.16 18.7
04/12/05 02:34 54.58 14.4 20
04/12/05 03:04 52.49 15.44 22.6
04/12/05 03:34 51.79 15.24 23
04/12/05 04:04 54.58 15.84 21.3
04/12/05 04:34 52.49 16.32 23.5
04/12/05 05:04 50.38 16.24 25.3
04/12/05 05:34 48.96 17.44 28.1
04/12/05 06:04 48.25 17.54 29
04/12/05 06:34 47.53 19.14 31.9
04/12/05 07:04 48.25 19.76 31.9
04/12/05 07:34 48.96 21.38 33.3
04/12/05 08:04 51.08 21.48 30.9
04/12/05 08:34 53.19 23.7 31.4
04/12/05 09:04 60.8 21.88 22.1
04/12/05 09:34 69.02 20.14 15.4
04/12/05 10:04 72.46 7.36 7.8
04/12/05 10:34 74.53 7.14 7.2
04/12/05 11:04 76.62 4.32 5.9
04/12/05 11:34 78.01 3 5.3
04/12/05 12:04 79.41 3.98 5.3
04/12/05 12:34 81.53 1.96 4.5
04/12/05 13:04 84.38 2.46 4.2
04/12/05 13:34 84.38 0.88 3.9
04/12/05 14:04 85.83 1.86 3.9
04/12/05 14:34 88.74 0.9 3.4
04/12/05 15:04 88.01 0.4 3.4
04/12/05 15:34 90.22 -1.48 2.9
04/12/05 16:04 87.28 1.72 3.7
04/12/05 16:34 89.48 1.4 3.4
04/12/05 17:04 89.48 3.2 3.7
04/12/05 17:34 85.83 3.44 4.2
04/12/05 18:04 85.83 3.44 4.2
04/12/05 18:34 82.95 4.34 4.8
04/12/05 19:04 80.12 5.68 5.6
04/12/05 19:34 78.01 7.44 6.5
04/12/05 20:04 73.84 19.44 12.7
04/12/05 20:34 71.08 21.78 15.4
04/12/05 21:04 68.33 23.64 18.3
04/12/05 21:34 66.96 23.54 19.1
04/12/05 22:04 66.28 24.08 20
04/12/05 22:34 64.22 24.76 22.1
04/12/05 23:04 62.17 24.9 23.9
04/12/05 23:34 60.8 25.94 26.2
04/13/05 00:04 58.73 26.2 28.5
04/13/05 00:34 60.11 27.38 28.5
04/13/05 01:04 58.73 28.14 30.9
04/13/05 01:34 58.73 29.68 32.9
04/13/05 02:04 58.73 31.4 35.3
04/13/05 02:34 56.66 31.58 38.3
04/13/05 03:04 57.35 30.88 36.3
04/13/05 03:34 56.66 31.26 37.8
04/13/05 04:04 55.97 30.32 37.3
04/13/05 04:34 55.28 30.34 38.3
04/13/05 05:04 55.28 29.7 37.3
04/13/05 05:34 55.28 30.34 38.3
04/13/05 06:04 53.89 31.24 41.8
04/13/05 06:34 53.89 31.54 42.3
04/13/05 07:04 53.89 32.74 44.4
04/13/05 07:34 53.89 32.46 43.9
04/13/05 08:04 55.97 33.78 42.9
04/13/05 08:34 57.35 31.22 36.8
04/13/05 09:04 65.59 35.98 33.3
04/13/05 09:34 71.77 33.5 24.4
04/13/05 10:04 74.53 29.22 18.7
04/13/05 10:34 73.15 27.04 17.9
04/13/05 11:04 75.22 21.26 13.1
04/13/05 11:34 78.71 18.12 10.2
04/13/05 12:04 80.82 16.3 8.8
04/13/05 12:34 82.24 16.56 8.5
04/13/05 13:04 85.83 17.24 7.8
04/13/05 13:34 85.83 18.1 8.1
04/13/05 14:04 88.01 19.72 8.1
04/13/05 14:34 86.55 22.38 9.5
04/13/05 15:04 86.55 31.56 13.9
04/13/05 15:34 85.1 36.16 17.5
04/13/05 16:04 85.83 36.02 17
04/13/05 16:34 85.1 34.84 16.6
04/13/05 17:04 85.1 37.3 18.3
04/13/05 17:34 82.95 38.3 20.4
04/13/05 18:04 81.53 40.18 23
04/13/05 18:34 80.82 38.12 21.7
04/13/05 19:04 79.41 38.42 23
04/13/05 19:34 75.22 41.26 29.5
04/13/05 20:04 71.08 42.66 35.8
04/13/05 20:34 69.02 43.92 40.3
04/13/05 21:04 66.28 44.56 45.4
04/13/05 21:34 64.22 45.54 50.6
04/13/05 22:04 62.85 45.84 53.7
04/13/05 22:34 61.48 46.54 57.9
04/13/05 23:04 60.8 46.58 59.4
04/13/05 23:34 60.11 47.06 62
04/14/05 00:04 58.73 47.06 65.1
04/14/05 00:34 58.73 46.4 63.5
04/14/05 01:04 57.35 46.14 66.1
04/14/05 01:34 55.28 45.34 69.1
04/14/05 02:04 54.58 46.52 74.1
04/14/05 02:34 53.89 46.36 75.6
04/14/05 03:04 53.19 46.52 78
04/14/05 03:34 53.19 46.68 78.5
04/14/05 04:04 53.19 45.7 75.6
04/14/05 04:34 52.49 45.66 77.5
04/14/05 05:04 51.08 45.28 80.4
04/14/05 05:34 50.38 45.6 83.6
04/14/05 06:04 50.38 45.76 84.1
04/14/05 06:34 49.67 45.2 84.5
04/14/05 07:04 48.96 45.18 86.7
04/14/05 07:34 48.25 44.24 85.9
04/14/05 08:04 51.08 45.86 82.2
04/14/05 08:34 53.89 46.02 74.6
04/14/05 09:04 60.8 46.58 59.4
04/14/05 09:34 66.28 43.98 44.4
04/14/05 10:04 68.33 41.3 37.3
04/14/05 10:34 71.08 39.68 31.9
04/14/05 11:04 75.22 34.92 23
04/14/05 11:34 80.12 30.84 16.6
04/14/05 12:04 84.38 15.28 7.5
04/14/05 12:34 87.28 15.48 6.9
04/14/05 13:04 89.48 14.62 6.2
04/14/05 13:34 90.96 12.12 5.3
04/14/05 14:04 87.28 35.34 15.8
04/14/05 14:34 89.48 35.78 15
04/14/05 15:04 92.46 24.14 8.5
04/14/05 15:34 92.46 17.84 6.5
04/14/05 16:04 90.96 37.62 15.4
04/14/05 16:34 87.28 40.68 19.5
04/14/05 17:04 84.38 41.54 22.1
04/14/05 17:34 82.24 39.28 21.7
04/14/05 18:04 82.24 37.22 20
04/14/05 18:34 80.82 38.58 22.1
04/14/05 19:04 79.41 40.36 24.8
04/14/05 19:34 75.92 44.3 32.4
04/14/05 20:04 71.77 45.38 38.8
04/14/05 20:34 69.02 45.56 42.9
04/14/05 21:04 67.65 46.38 46.4
04/14/05 21:34 65.59 46.22 49.5
04/14/05 22:04 64.22 46.3 52.1
04/14/05 22:34 64.22 47.34 54.2
04/14/05 23:04 62.17 46.9 57.3
04/14/05 23:34 60.8 46.36 58.9
04/15/05 00:04 58.73 45.56 61.5
04/15/05 00:34 58.04 45.74 63.5
04/15/05 01:04 58.73 45.98 62.5
04/15/05 01:34 59.42 46.2 61.5
04/15/05 02:04 57.35 44.68 62.5
04/15/05 02:34 55.97 44.64 65.6
04/15/05 03:04 55.97 42.74 61
04/15/05 03:34 55.97 43.16 62
04/15/05 04:04 54.58 42.72 64.1
04/15/05 04:34 55.28 40.24 56.8
04/15/05 05:04 55.28 38.56 53.2
04/15/05 05:34 55.28 35.1 46.4
04/15/05 06:04 53.89 35.46 49.5
04/15/05 06:34 52.49 35.98 53.2
04/15/05 07:04 53.89 34.68 48
04/15/05 07:34 53.19 35.12 50.1
04/15/05 08:04 55.97 33.12 41.8
04/15/05 08:34 58.04 34.7 41.3
04/15/05 09:04 66.28 37.34 34.3
04/15/05 09:34 73.15 35.58 25.3
04/15/05 10:04 78.01 27.94 15.8
04/15/05 10:34 79.41 25.26 13.5
04/15/05 11:04 80.82 19.72 10.2
04/15/05 11:34 83.67 20.2 9.5
04/15/05 12:04 86.55 22.38 9.5
04/15/05 12:34 87.28 21.9 9.1
04/15/05 13:04 86.55 25.64 10.9
04/15/05 13:34 88.01 26.76 10.9
04/15/05 14:04 88.74 26.42 10.5
04/15/05 14:34 89.48 26.98 10.5
04/15/05 15:04 90.22 28.44 10.9
04/15/05 15:34 91.71 27 9.8
04/15/05 16:04 88.74 29.66 12
04/15/05 16:34 86.55 28.76 12.4
04/15/05 17:04 84.38 26.3 12
04/15/05 17:34 83.67 26.54 12.4
04/15/05 18:04 83.67 23.44 10.9
04/15/05 18:34 83.67 20.94 9.8
04/15/05 19:04 81.53 19.32 9.8
04/15/05 19:34 78.71 23.26 12.7
04/15/05 20:04 75.22 25.1 15.4
04/15/05 20:34 71.77 24.12 16.6
04/15/05 21:04 69.71 23.02 17
04/15/05 21:34 69.02 22.46 17
04/15/05 22:04 66.28 25.58 21.3
04/15/05 22:34 64.22 27.14 24.4
04/15/05 23:04 64.22 30.14 27.6
04/15/05 23:34 63.54 31.6 30
04/16/05 00:04 62.85 31.72 30.9
04/16/05 00:34 60.8 30.72 31.9
04/16/05 01:04 58.73 30.34 33.8
04/16/05 01:34 58.73 30.34 33.8
04/16/05 02:04 60.11 30.5 32.4
04/16/05 02:34 59.42 29.9 32.4
04/16/05 03:04 59.42 29.9 32.4
04/16/05 03:34 57.35 30.18 35.3
04/16/05 04:04 54.58 30.98 40.3
04/16/05 04:34 55.97 29.3 35.8
04/16/05 05:04 55.28 28 34.8
04/16/05 05:34 55.97 27.54 33.3
04/16/05 06:04 54.58 27.4 34.8
04/16/05 06:34 54.58 26.68 33.8
04/16/05 07:04 53.89 27.46 35.8
04/16/05 07:34 52.49 27.54 37.8
04/16/05 08:04 53.89 27.46 35.8
04/16/05 08:34 58.04 26.84 30
04/16/05 09:04 65.59 28.68 24.8
04/16/05 09:34 73.84 29.18 19.1
04/16/05 10:04 76.62 21.62 12.7
04/16/05 10:34 78.71 19.66 10.9
04/16/05 11:04 80.12 19.86 10.5
04/16/05 11:34 82.95 18.66 9.1
04/16/05 12:04 82.95 17.1 8.5
04/16/05 12:34 85.83 15.4 7.2
04/16/05 13:04 87.28 15.48 6.9
04/16/05 13:34 87.28 14.12 6.5
04/16/05 14:04 88.01 17.92 7.5
04/16/05 14:34 88.01 22.46 9.1
04/16/05 15:04 88.74 23 9.1
04/16/05 15:34 90.22 23.3 8.8
04/16/05 16:04 88.01 20.84 8.5
04/16/05 16:34 88.01 17.92 7.5
04/16/05 17:04 87.28 14.12 6.5
04/16/05 17:34 85.83 8.52 5.3
04/16/05 18:04 83.67 7 5.3
04/16/05 18:34 82.24 10.48 6.5
04/16/05 19:04 81.53 13.18 7.5
04/16/05 19:34 75.22 21.26 13.1
04/16/05 20:04 71.77 21.72 15
04/16/05 20:34 69.71 23.7 17.5
04/16/05 21:04 67.65 25.2 20
04/16/05 21:34 65.59 25.9 22.1
04/16/05 22:04 64.22 27.14 24.4
04/16/05 22:34 62.17 26.64 25.7
04/16/05 23:04 62.17 27.1 26.2
04/16/05 23:34 58.73 27.44 30
04/17/05 00:04 58.04 26.42 29.5
04/17/05 00:34 56.66 25.64 30
04/17/05 01:04 55.97 23.04 27.6
04/17/05 01:34 55.97 19.28 23.5
04/17/05 02:04 53.19 18.62 25.3
04/17/05 02:34 51.79 19.46 27.6
04/17/05 03:04 52.49 19.28 26.7
04/17/05 03:34 52.49 17.56 24.8
04/17/05 04:04 49.67 18.04 28.1
04/17/05 04:34 50.38 18.24 27.6
04/17/05 05:04 50.38 16.24 25.3
04/17/05 05:34 49.67 17.2 27.1
04/17/05 06:04 47.53 18.4 30.9
04/17/05 06:34 46.82 19.22 32.9
04/17/05 07:04 48.96 17.02 27.6
04/17/05 07:34 46.1 17.5 31.4
04/17/05 08:04 48.96 16.6 27.1
04/17/05 08:34 52.49 15.84 23
04/17/05 09:04 60.11 18.38 19.5
04/17/05 09:34 67.65 -1.1 6.2
04/17/05 10:04 71.77 -0.28 5.6
04/17/05 10:34 71.77 -2.66 5
04/17/05 11:04 72.46 -7.3 3.9
04/17/05 11:34 75.22 -5.4 3.9
04/17/05 12:04 77.31 -5.06 3.7
04/17/05 12:34 80.12 -3.14 3.7
04/17/05 13:04 80.82 -11.5 2.4
04/17/05 13:34 82.95 -10.12 2.4
04/17/05 14:04 83.67 -0.74 3.7
04/17/05 14:34 83.67 11.52 6.5
04/17/05 15:04 82.24 20.8 10.2
04/17/05 15:34 82.24 11.82 6.9
04/17/05 16:04 81.53 14.08 7.8
04/17/05 16:34 80.82 11.74 7.2
04/17/05 17:04 79.41 7.4 6.2
04/17/05 17:34 78.01 13.42 8.5
04/17/05 18:04 77.31 10.08 7.5
04/17/05 18:34 74.53 8.04 7.5
04/17/05 19:04 73.15 7.88 7.8
04/17/05 19:34 70.39 14.08 11.3
04/17/05 20:04 66.28 23.48 19.5
04/17/05 20:34 63.54 29.98 28.1
04/17/05 21:04 61.48 34.88 36.8
04/17/05 21:34 59.42 39.76 48
04/17/05 22:04 58.04 38.22 47.5
04/17/05 22:34 55.97 37.68 50.1
04/17/05 23:04 55.28 38.56 53.2
04/17/05 23:34 54.58 37.92 53.2
04/18/05 00:04 53.19 39.64 59.9
04/18/05 00:34 52.49 42.86 69.6
04/18/05 01:04 50.38 44.42 79.9
04/18/05 01:34 48.96 44.94 85.9
04/18/05 02:04 48.96 46.08 89.7
04/18/05 02:34 48.25 45.26 89.3
04/18/05 03:04 46.82 45.54 95.3
04/18/05 03:34 47.53 46.38 95.7
04/18/05 04:04 48.25 46.2 92.6
04/18/05 04:34 48.25 46.1 92.2
04/18/05 05:04 48.25 45.86 91.4
04/18/05 05:34 48.25 45.52 90.2
04/18/05 06:04 47.53 45.16 91.4
04/18/05 06:34 47.53 44.82 90.2
04/18/05 07:04 47.53 44.66 89.7
04/18/05 07:34 47.53 44.66 89.7
04/18/05 08:04 48.25 44.86 88
04/18/05 08:34 49.67 44.8 83.2
04/18/05 09:04 50.38 43.96 78.5
04/18/05 09:34 54.58 45.78 72.1
04/18/05 10:04 55.97 44.64 65.6
04/18/05 10:34 58.04 42.6 56.3
04/18/05 11:04 60.11 41.18 49.5
04/18/05 11:34 62.17 40.54 44.9
04/18/05 12:04 64.91 40.24 40.3
04/18/05 12:34 66.28 35.9 32.4
04/18/05 13:04 66.96 37.56 33.8
04/18/05 13:34 69.71 35.64 28.5
04/18/05 14:04 71.77 36.6 27.6
04/18/05 14:34 73.15 39.04 29
04/18/05 15:04 73.15 38.58 28.5
04/18/05 15:34 72.46 38.44 29
04/18/05 16:04 73.15 40.66 30.9
04/18/05 16:34 73.15 39.46 29.5
04/18/05 17:04 71.77 41.38 33.3
04/18/05 17:34 71.77 41.08 32.9
04/18/05 18:04 69.02 42.24 37.8
04/18/05 18:34 67.65 41.7 38.8
04/18/05 19:04 64.91 44.5 47.5
04/18/05 19:34 62.17 46.2 55.8
04/18/05 20:04 59.42 47.5 64.6
04/18/05 20:34 57.35 47.94 70.7
04/18/05 21:04 55.97 48.88 77
04/18/05 21:34 53.89 48.6 82.2
04/18/05 22:04 53.19 48.52 84.1
04/18/05 22:34 51.79 47.84 86.3
04/18/05 23:04 50.38 46.84 87.6
04/18/05 23:34 49.67 46.42 88.5
04/19/05 00:04 48.25 45.52 90.2
04/19/05 00:34 47.53 45.04 91
04/19/05 01:04 46.82 44.68 92.2
04/19/05 01:34 46.82 44.56 91.8
04/19/05 02:04 46.82 44.56 91.8
04/19/05 02:34 46.1 43.86 91.8
04/19/05 03:04 45.38 43.14 91.8
04/19/05 03:34 45.38 42.68 90.2
04/19/05 04:04 46.1 42.76 88
04/19/05 04:34 46.82 42.68 85.4
04/19/05 05:04 46.1 42.12 85.9
04/19/05 05:34 45.38 41.42 85.9
04/19/05 06:04 43.92 40.76 88.5
04/19/05 06:34 43.92 41.36 90.6
04/19/05 07:04 43.19 40.64 90.6
04/19/05 07:34 43.19 40.38 89.7
04/19/05 08:04 45.38 40.6 83.2
04/19/05 08:34 48.25 40.4 74.1
04/19/05 09:04 51.08 41.52 69.6
04/19/05 09:34 53.89 41.18 62
04/19/05 10:04 55.28 39.78 55.8
04/19/05 10:34 57.35 40.74 53.7
04/19/05 11:04 58.04 38.22 47.5
04/19/05 11:34 60.11 38.68 44.9
04/19/05 12:04 62.17 36.16 37.8
04/19/05 12:34 64.22 35.9 34.8
04/19/05 13:04 65.59 32.96 29.5
04/19/05 13:34 67.65 31.78 26.2
04/19/05 14:04 69.02 34.24 27.6
04/19/05 14:34 69.71 37.26 30.4
04/19/05 15:04 69.02 37.48 31.4
04/19/05 15:34 69.02 37.48 31.4
04/19/05 16:04 69.02 37.88 31.9
04/19/05 16:34 69.02 37.08 30.9
04/19/05 17:04 68.33 36.48 30.9
04/19/05 17:34 68.33 35.32 29.5
04/19/05 18:04 66.28 35.5 31.9
04/19/05 18:34 64.91 36.5 34.8
04/19/05 19:04 62.17 37.78 40.3
04/19/05 19:34 58.73 39.12 48
04/19/05 20:04 55.97 39.68 54.2
04/19/05 20:34 54.58 40.74 59.4
04/19/05 21:04 52.49 40.08 62.5
04/19/05 21:34 51.08 40.18 66.1
04/19/05 22:04 49.67 40.74 71.2
04/19/05 22:34 48.96 41.6 75.6
04/19/05 23:04 47.53 41.2 78.5
04/19/05 23:34 46.82 41.4 81.3
04/20/05 00:04 45.38 40.28 82.2
04/20/05 00:34 44.65 39.88 83.2
04/20/05 01:04 43.92 39.98 85.9
04/20/05 01:34 43.19 39.76 87.6
04/20/05 02:04 43.19 40.26 89.3
04/20/05 02:34 42.46 40.02 91
04/20/05 03:04 41.72 39.52 91.8
04/20/05 03:34 40.97 38.9 92.2
04/20/05 04:04 40.97 39.44 94.2
04/20/05 04:34 39.48 38.06 94.6
04/20/05 05:04 40.23 39 95.3
04/20/05 05:34 39.48 38.24 95.3
04/20/05 06:04 38.72 37.5 95.3
04/20/05 06:34 37.97 36.96 96.1
04/20/05 07:04 37.97 36.96 96.1
04/20/05 07:34 37.97 36.86 95.7
04/20/05 08:04 41.72 39.84 93
04/20/05 08:34 46.1 39 76.1
04/20/05 09:04 51.79 40.86 66.1
04/20/05 09:34 55.97 40.66 56.3
04/20/05 10:04 60.8 41.28 48.5
04/20/05 10:34 62.85 38.7 40.8
04/20/05 11:04 66.28 37.34 34.3
04/20/05 11:34 69.02 37.08 30.9
04/20/05 12:04 71.08 36.46 28.1
04/20/05 12:34 73.15 34.66 24.4
04/20/05 13:04 75.22 29.8 18.7
04/20/05 13:34 77.31 27.98 16.2
04/20/05 14:04 77.31 26.76 15.4
04/20/05 14:34 80.12 25.8 13.5
04/20/05 15:04 82.24 25.42 12.4
04/20/05 15:34 80.12 25.08 13.1
04/20/05 16:04 82.95 22.02 10.5
04/20/05 16:34 84.38 24 10.9
04/20/05 17:04 83.67 28.6 13.5
04/20/05 17:34 80.82 31.98 17
04/20/05 18:04 80.12 31.42 17
04/20/05 18:34 76.62 34.62 21.7
04/20/05 19:04 73.84 36.16 25.3
04/20/05 19:34 70.39 39.88 32.9
04/20/05 20:04 67.65 40.68 37.3
04/20/05 20:34 64.91 40.56 40.8
04/20/05 21:04 62.85 40.58 43.9
04/20/05 21:34 60.8 40.14 46.4
04/20/05 22:04 59.42 40.86 50.1
04/20/05 22:34 58.73 40.48 50.6
04/20/05 23:04 58.73 42.48 54.7
04/20/05 23:34 57.35 40.96 54.2
04/21/05 00:04 55.28 40.46 57.3
04/21/05 00:34 54.58 40.74 59.4
04/21/05 01:04 53.19 40.54 62
04/21/05 01:34 52.49 40.28 63
04/21/05 02:04 53.19 39.22 58.9
04/21/05 02:34 52.49 38.56 58.9
04/21/05 03:04 51.79 39.42 62.5
04/21/05 03:34 51.79 37.68 58.4
04/21/05 04:04 49.67 37.62 63
04/21/05 04:34 50.38 38.48 63.5
04/21/05 05:04 48.96 38.36 66.6
04/21/05 05:34 48.25 37.86 67.1
04/21/05 06:04 47.53 38.52 70.7
04/21/05 06:34 57.35 34.38 41.8
04/21/05 07:04 56.66 29.92 35.8
04/21/05 07:34 57.35 25.42 29
04/21/05 08:04 58.73 22.88 24.8
04/21/05 08:34 62.17 21.14 20.4
04/21/05 09:04 68.33 20.18 15.8
04/21/05 09:34 71.08 17.3 12.7
04/21/05 10:04 72.46 15.68 11.3
04/21/05 10:34 73.15 14.54 10.5
04/21/05 11:04 75.22 15.46 10.2
04/21/05 11:34 75.92 14.36 9.5
04/21/05 12:04 78.71 12.84 8.1
04/21/05 12:34 80.12 12.14 7.5
04/21/05 13:04 81.53 11.32 6.9
04/21/05 13:34 82.24 10.48 6.5
04/21/05 14:04 83.67 10.46 6.2
04/21/05 14:34 83.67 8.2 5.6
04/21/05 15:04 83.67 9.36 5.9
04/21/05 15:34 85.1 9.22 5.6
04/21/05 16:04 85.83 6.34 4.8
04/21/05 16:34 85.1 8 5.3
04/21/05 17:04 85.83 7.24 5
04/21/05 17:34 86.55 6.84 4.8
04/21/05 18:04 82.95 7.7 5.6
04/21/05 18:34 82.24 5.98 5.3
04/21/05 19:04 80.12 6.82 5.9
04/21/05 19:34 77.31 10.08 7.5
04/21/05 20:04 73.84 11.08 8.8
04/21/05 20:34 71.77 12.82 10.2
04/21/05 21:04 71.08 12.96 10.5
04/21/05 21:34 70.39 13.26 10.9
04/21/05 22:04 69.71 11.9 10.5
04/21/05 22:34 69.02 11.38 10.5
04/21/05 23:04 66.28 12.98 12.4
04/21/05 23:34 64.22 14.6 14.3
04/22/05 00:04 63.54 14.06 14.3
04/22/05 00:34 62.17 14.04 15
04/22/05 01:04 60.11 16.42 17.9
04/22/05 01:34 60.8 15.24 16.6
04/22/05 02:04 60.11 15.24 17
04/22/05 02:34 58.04 15.72 18.7
04/22/05 03:04 58.04 15.22 18.3
04/22/05 03:34 56.66 18 21.7
04/22/05 04:04 56.66 16.58 20.4
04/22/05 04:34 58.04 14.22 17.5
04/22/05 05:04 57.35 17.6 20.8
04/22/05 05:34 58.04 18.18 20.8
04/22/05 06:04 58.73 19.3 21.3
04/22/05 06:34 60.11 21.84 22.6
04/22/05 07:04 59.42 23.46 24.8
04/22/05 07:34 59.42 25.22 26.7
04/22/05 08:04 60.11 21.32 22.1
04/22/05 08:34 61.48 24.82 24.4
04/22/05 09:04 62.85 28.52 27.1
04/22/05 09:34 64.22 29.32 26.7
04/22/05 10:04 63.54 34.56 33.8
04/22/05 10:34 63.54 36.36 36.3
04/22/05 11:04 64.22 38.32 38.3
04/22/05 11:34 64.91 36.86 35.3
04/22/05 12:04 67.65 28.16 22.6
04/22/05 12:34 69.71 28.42 21.3
04/22/05 13:04 69.02 30.68 23.9
04/22/05 13:34 68.33 29.68 23.5
04/22/05 14:04 66.96 33.28 28.5
04/22/05 14:34 69.02 32.08 25.3
04/22/05 15:04 69.71 29.88 22.6
04/22/05 15:34 71.08 30.48 22.1
04/22/05 16:04 70.39 32.74 24.8
04/22/05 16:34 69.71 32.66 25.3
04/22/05 17:04 70.39 31.42 23.5
04/22/05 17:34 69.02 33.42 26.7
04/22/05 18:04 73.15 31.74 21.7
04/22/05 18:34 71.77 29.56 20.8
04/22/05 19:04 73.84 28.14 18.3
04/22/05 19:34 71.77 30.6 21.7
04/22/05 20:04 69.02 31.58 24.8
04/22/05 20:34 66.28 31.9 27.6
04/22/05 21:04 64.91 29.9 26.7
04/22/05 21:34 63.54 29.98 28.1
04/22/05 22:04 63.54 29.1 27.1
04/22/05 22:34 61.48 30.54 30.9
04/22/05 23:04 60.11 31.18 33.3
04/22/05 23:34 58.73 31.76 35.8
04/23/05 00:04 59.42 32.7 36.3
04/23/05 00:34 57.35 33.16 39.8
04/23/05 01:04 57.35 33.46 40.3
04/23/05 01:34 56.66 33.14 40.8
04/23/05 02:04 57.35 33.16 39.8
04/23/05 02:34 55.97 34.92 44.9
04/23/05 03:04 56.66 36.7 47
04/23/05 03:34 55.28 38.32 52.7
04/23/05 04:04 55.97 40.44 55.8
04/23/05 04:34 54.58 40.96 59.9
04/23/05 05:04 54.58 42.46 63.5
04/23/05 05:34 53.19 42.76 67.6
04/23/05 06:04 53.89 44.98 71.7
04/23/05 06:34 57.35 47.94 70.7
04/23/05 07:04 53.89 44.98 71.7
04/23/05 07:34 54.58 45.64 71.7
04/23/05 08:04 57.35 47.14 68.6
04/23/05 08:34 60.11 47.94 64.1
04/23/05 09:04 68.33 50.1 52.1
04/23/05 09:34 70.39 51.2 50.6
04/23/05 10:04 71.08 48.62 44.9
04/23/05 10:34 73.15 47.28 39.8
04/23/05 11:04 73.84 45.46 36.3
04/23/05 11:34 75.92 46.18 34.8
04/23/05 12:04 78.01 48.76 35.8
04/23/05 12:34 78.01 49.86 37.3
04/23/05 13:04 77.31 49.96 38.3
04/23/05 13:34 75.22 48.78 39.3
04/23/05 14:04 75.22 49.8 40.8
04/23/05 14:34 75.22 47.4 37.3
04/23/05 15:04 75.22 45.56 34.8
04/23/05 15:34 76.62 40.26 27.1
04/23/05 16:04 72.46 39.64 30.4
04/23/05 16:34 67.65 41.36 38.3
04/23/05 17:04 64.91 40.86 41.3
04/23/05 17:34 62.17 41.72 47
04/23/05 18:04 58.73 46.18 63
04/23/05 18:34 59.42 47.5 64.6
04/23/05 19:04 59.42 47.7 65.1
04/23/05 19:34 59.42 44.84 58.4
04/23/05 20:04 57.35 46.94 68.1
04/23/05 20:34 55.97 47.12 72.1
04/23/05 21:04 53.89 48.76 82.7
04/23/05 21:34 52.49 49.32 88.9
04/23/05 22:04 51.79 49.48 91.8
04/23/05 22:34 50.38 48.44 93
04/23/05 23:04 50.38 48.44 93
04/23/05 23:34 50.38 48.54 93.4
04/24/05 00:04 49.67 48.08 94.2
04/24/05 00:34 49.67 47.84 93.4
04/24/05 01:04 48.96 47.26 93.8
04/24/05 01:34 48.25 46.88 95
04/24/05 02:04 47.53 46.48 96.1
04/24/05 02:34 47.53 46.38 95.7
04/24/05 03:04 46.82 45.76 96.1
04/24/05 03:34 46.82 45.96 96.8
04/24/05 04:04 46.1 45.72 98.6
04/24/05 04:34 45.38 45.12 99
04/24/05 05:04 45.38 45.12 99
04/24/05 05:34 45.38 45.28 99.6
04/24/05 06:04 47.53 47.42 99.6
04/24/05 06:34 48.25 48.06 99.3
04/24/05 07:04 48.96 48.78 99.3
04/24/05 07:34 49.67 49.56 99.6
04/24/05 08:04 51.08 50.7 98.6
04/24/05 08:34 52.49 50.64 93.4
04/24/05 09:04 53.19 51.22 93
04/24/05 09:34 54.58 52.48 92.6
04/24/05 10:04 53.89 53.42 98.3
04/24/05 10:34 54.58 53.5 96.1
04/24/05 11:04 55.28 53.28 93
04/24/05 11:34 58.73 50.7 74.6
04/24/05 12:04 61.48 48.14 61.5
04/24/05 12:34 63.54 47.72 56.3
04/24/05 13:04 64.22 46.3 52.1
04/24/05 13:34 66.28 45.48 47
04/24/05 14:04 65.59 45.94 49
04/24/05 14:34 66.28 43.38 43.4
04/24/05 15:04 68.33 40.94 36.8
04/24/05 15:34 68.33 39.88 35.3
04/24/05 16:04 68.33 40.6 36.3
04/24/05 16:34 69.71 38.08 31.4
04/24/05 17:04 67.65 38.9 34.8
04/24/05 17:34 68.33 38.08 32.9
04/24/05 18:04 67.65 38.9 34.8
04/24/05 18:34 64.22 43.6 47
04/24/05 19:04 61.48 45.8 56.3
04/24/05 19:34 60.11 46.84 61.5
04/24/05 20:04 58.73 48.06 67.6
04/24/05 20:34 57.35 48.46 72.1
04/24/05 21:04 56.66 50.24 79
04/24/05 21:34 55.97 51.08 83.6
04/24/05 22:04 55.28 49.48 80.8
04/24/05 22:34 55.28 49.82 81.8
04/24/05 23:04 55.28 48.88 79
04/24/05 23:34 54.58 49.14 81.8
04/25/05 00:04 53.89 49.32 84.5
04/25/05 00:34 53.89 47.54 79
04/25/05 01:04 53.19 46.52 78
04/25/05 01:34 52.49 47.54 83.2
04/25/05 02:04 52.49 47.22 82.2
04/25/05 02:34 52.49 47.22 82.2
04/25/05 03:04 52.49 47.68 83.6
04/25/05 03:34 52.49 47.54 83.2
04/25/05 04:04 52.49 47.22 82.2
04/25/05 04:34 52.49 47.1 81.8
04/25/05 05:04 52.49 46.94 81.3
04/25/05 05:34 52.49 46.94 81.3
04/25/05 06:04 52.49 46.48 79.9
04/25/05 06:34 52.49 46 78.5
04/25/05 07:04 51.79 45.32 78.5
04/25/05 07:34 51.08 45.1 79.9
04/25/05 08:04 52.49 45.02 75.6
04/25/05 08:34 52.49 45.2 76.1
04/25/05 09:04 55.97 47.48 73.1
04/25/05 09:34 57.35 46.14 66.1
04/25/05 10:04 59.42 44.84 58.4
04/25/05 10:34 60.8 42.64 51.1
04/25/05 11:04 62.85 40.88 44.4
04/25/05 11:34 64.22 38.66 38.8
04/25/05 12:04 64.91 39.58 39.3
04/25/05 12:34 66.28 37.7 34.8
04/25/05 13:04 69.02 37.08 30.9
04/25/05 13:34 71.08 34.7 26.2
04/25/05 14:04 72.46 34.08 24.4
04/25/05 14:34 73.15 32.2 22.1
04/25/05 15:04 75.92 29.3 17.9
04/25/05 15:34 75.92 31.4 19.5
04/25/05 16:04 76.62 28.02 16.6
04/25/05 16:34 78.01 32.06 18.7
04/25/05 17:04 76.62 33.08 20.4
04/25/05 17:34 76.62 31.46 19.1
04/25/05 18:04 74.53 32.44 21.3
04/25/05 18:34 73.15 33.18 23
04/25/05 19:04 70.39 35.42 27.6
04/25/05 19:34 67.65 39.28 35.3
04/25/05 20:04 64.22 40.86 42.3
04/25/05 20:34 62.17 41.1 45.9
04/25/05 21:04 60.8 41.8 49.5
04/25/05 21:34 58.73 42.48 54.7
04/25/05 22:04 57.35 43.34 59.4
04/25/05 22:34 55.97 43.36 62.5
04/25/05 23:04 55.28 44.18 66.1
04/25/05 23:34 53.89 44.38 70.1
04/26/05 00:04 53.19 45.34 74.6
04/26/05 00:34 52.49 45.84 78
04/26/05 01:04 52.49 46 78.5
04/26/05 01:34 51.08 45.4 80.8
04/26/05 02:04 50.38 45.16 82.2
04/26/05 02:34 49.67 44.92 83.6
04/26/05 03:04 48.96 44.94 85.9
04/26/05 03:34 47.53 44.44 88.9
04/26/05 04:04 46.82 44.22 90.6
04/26/05 04:34 46.1 43.74 91.4
04/26/05 05:04 45.38 43.48 93
04/26/05 05:34 46.1 44.52 94.2
04/26/05 06:04 45.38 43.58 93.4
04/26/05 06:34 43.92 42.36 94.2
04/26/05 07:04 44.65 43.2 94.6
04/26/05 07:34 44.65 42.86 93.4
04/26/05 08:04 46.82 44.44 91.4
04/26/05 08:34 50.38 44.58 80.4
04/26/05 09:04 57.35 47.32 69.1
04/26/05 09:34 60.11 47.06 62
04/26/05 10:04 63.54 45.98 52.7
04/26/05 10:34 66.96 44.3 43.9
04/26/05 11:04 69.02 41.9 37.3
04/26/05 11:34 73.84 36.56 25.7
04/26/05 12:04 75.22 33.92 22.1
04/26/05 12:34 76.62 35.08 22.1
04/26/05 13:04 78.01 36.8 22.6
04/26/05 13:34 76.62 39.88 26.7
04/26/05 14:04 77.31 39.1 25.3
04/26/05 14:34 77.31 40.86 27.1
04/26/05 15:04 78.01 39.16 24.8
04/26/05 15:34 79.41 39.94 24.4
04/26/05 16:04 81.53 38.7 21.7
04/26/05 16:34 78.71 37.84 23
04/26/05 17:04 77.31 38.58 24.8
04/26/05 17:34 78.71 37.84 23
04/26/05 18:04 76.62 39.4 26.2
04/26/05 18:34 72.46 40.06 30.9
04/26/05 19:04 71.77 41.38 33.3
04/26/05 19:34 67.65 44.62 43.4
04/26/05 20:04 63.54 45.16 51.1
04/26/05 20:34 60.8 45.4 56.8
04/26/05 21:04 58.73 45.76 62
04/26/05 21:34 57.35 46.34 66.6
04/26/05 22:04 55.97 46.8 71.2
04/26/05 22:34 54.58 48.04 78.5
04/26/05 23:04 53.19 48.52 84.1
04/26/05 23:34 51.79 48.62 88.9
04/27/05 00:04 50.38 48.08 91.8
04/27/05 00:34 49.67 47.74 93
04/27/05 01:04 48.96 47.02 93
04/27/05 01:34 48.96 47.68 95.3
04/27/05 02:04 47.53 46.48 96.1
04/27/05 02:34 46.82 46.18 97.6
04/27/05 03:04 46.1 45.92 99.3
04/27/05 03:34 48.25 47.8 98.3
04/27/05 04:04 49.67 47.5 92.2
04/27/05 04:34 49.67 46.78 89.7
04/27/05 05:04 50.38 46.84 87.6
04/27/05 05:34 50.38 46.18 85.4
04/27/05 06:04 51.08 46.3 83.6
04/27/05 06:34 51.08 45.4 80.8
04/27/05 07:04 51.08 45.56 81.3
04/27/05 07:34 51.08 45.56 81.3
04/27/05 08:04 51.08 43.84 76.1
04/27/05 08:34 51.79 43.64 73.6
04/27/05 09:04 52.49 42.66 69.1
04/27/05 09:34 55.97 44.02 64.1
04/27/05 10:04 58.04 43.32 57.9
04/27/05 10:34 58.73 42.26 54.2
04/27/05 11:04 60.11 42 51.1
04/27/05 11:34 62.17 39.96 43.9
04/27/05 12:04 62.85 39.64 42.3
04/27/05 12:34 66.28 36.58 33.3
04/27/05 13:04 67.65 37.48 32.9
04/27/05 13:34 67.65 35.9 30.9
04/27/05 14:04 69.71 36.08 29
04/27/05 14:34 71.08 35.16 26.7
04/27/05 15:04 73.15 34.14 23.9
04/27/05 15:34 75.22 32.42 20.8
04/27/05 16:04 74.53 32.44 21.3
04/27/05 16:34 75.92 31.4 19.5
04/27/05 17:04 75.92 33 20.8
04/27/05 17:34 75.22 36.4 24.4
04/27/05 18:04 74.53 35.3 23.9
04/27/05 18:34 72.46 36.34 26.7
04/27/05 19:04 69.71 36.08 29
04/27/05 19:34 66.96 40.42 37.8
04/27/05 20:04 62.17 42.8 49
04/27/05 20:34 58.73 44.2 58.4
04/27/05 21:04 56.66 44.68 64.1
04/27/05 21:34 55.97 45.42 67.6
04/27/05 22:04 54.58 45.28 70.7
04/27/05 22:34 53.89 45.66 73.6
04/27/05 23:04 52.49 45.36 76.6
04/27/05 23:34 51.79 45.8 79.9
04/28/05 00:04 50.38 45.48 83.2
04/28/05 00:34 49.67 45.88 86.7
04/28/05 01:04 48.96 45.56 88
04/28/05 01:34 47.53 44.82 90.2
04/28/05 02:04 47.53 45.16 91.4
04/28/05 02:34 46.1 44.2 93
04/28/05 03:04 46.1 44.3 93.4
04/28/05 03:34 45.38 43.92 94.6
04/28/05 04:04 46.1 44.2 93
04/28/05 04:34 47.53 44.92 90.6
04/28/05 05:04 47.53 44.92 90.6
04/28/05 05:34 48.25 45.26 89.3
04/28/05 06:04 47.53 44.82 90.2
04/28/05 06:34 46.1 44.08 92.6
04/28/05 07:04 46.1 44.08 92.6
04/28/05 07:34 45.38 43.7 93.8
04/28/05 08:04 46.82 44.56 91.8
04/28/05 08:34 50.38 42.46 74.1
04/28/05 09:04 56.66 39.6 52.7
04/28/05 09:34 59.42 38.32 45.4
04/28/05 10:04 60.11 40.38 48
04/28/05 10:34 62.17 37.46 39.8
04/28/05 11:04 64.91 37.22 35.8
04/28/05 11:34 66.96 36.1 31.9
04/28/05 12:04 66.96 36.88 32.9
04/28/05 12:34 67.65 39.64 35.8
04/28/05 13:04 69.02 39.74 34.3
04/28/05 13:34 71.77 37.84 29
04/28/05 14:04 71.08 33.82 25.3
04/28/05 14:34 70.39 37.52 30
04/28/05 15:04 71.77 36.12 27.1
04/28/05 15:34 71.77 39.88 31.4
04/28/05 16:04 70.39 44.82 39.8
04/28/05 16:34 68.33 46.72 45.9
04/28/05 17:04 66.28 46.84 49.5
04/28/05 17:34 63.54 48.7 58.4
04/28/05 18:04 62.17 50.52 65.6
04/28/05 18:34 60.11 50.58 70.7
04/28/05 19:04 59.42 49.68 70.1
04/28/05 19:34 60.11 47.06 62
04/28/05 20:04 59.42 46.84 63
04/28/05 20:34 58.73 45.34 61
04/28/05 21:04 58.04 47.4 67.6
04/28/05 21:34 56.66 46.28 68.1
04/28/05 22:04 55.97 47.48 73.1
04/28/05 22:34 55.28 48.38 77.5
04/28/05 23:04 53.89 48.14 80.8
04/28/05 23:34 53.89 48.14 80.8
04/29/05 00:04 52.49 47.68 83.6
04/29/05 00:34 51.79 47.56 85.4
04/29/05 01:04 51.08 47.66 88
04/29/05 01:34 51.08 47.8 88.5
04/29/05 02:04 50.38 47.62 90.2
04/29/05 02:34 49.67 47.16 91
04/29/05 03:04 48.96 47.26 93.8
04/29/05 03:34 48.96 47.68 95.3
04/29/05 04:04 48.25 47.3 96.5
04/29/05 04:34 47.53 46.68 96.8
04/29/05 05:04 46.82 46.64 99.3
04/29/05 05:34 46.82 46.72 99.6
04/29/05 06:04 46.1 46 99.6
04/29/05 06:34 46.1 46 99.6
04/29/05 07:04 45.38 45.28 99.6
04/29/05 07:34 46.1 46 99.6
04/29/05 08:04 48.25 46.32 93
04/29/05 08:34 51.79 43.28 72.6
04/29/05 09:04 56.66 43.12 60.4
04/29/05 09:34 58.73 42.48 54.7
04/29/05 10:04 60.11 40.12 47.5
04/29/05 10:34 61.48 39.34 43.9
04/29/05 11:04 62.85 40 42.9
04/29/05 11:34 64.91 39.58 39.3
04/29/05 12:04 66.96 37.18 33.3
04/29/05 12:34 68.33 34.46 28.5
04/29/05 13:04 69.71 34 26.7
04/29/05 13:34 71.77 32.98 23.9
04/29/05 14:04 74.53 31.36 20.4
04/29/05 14:34 76.62 30.92 18.7
04/29/05 15:04 80.12 28.36 15
04/29/05 15:34 80.82 27.06 13.9
04/29/05 16:04 82.24 26.74 13.1
04/29/05 16:34 80.82 25.64 13.1
04/29/05 17:04 83.67 24.94 11.6
04/29/05 17:34 82.24 27.48 13.5
04/29/05 18:04 81.53 31.96 16.6
04/29/05 18:34 79.41 35.88 20.8
04/29/05 19:04 78.71 36.82 22.1
04/29/05 19:34 71.08 39.68 31.9
04/29/05 20:04 68.33 40.94 36.8
04/29/05 20:34 66.28 44.84 45.9
04/29/05 21:04 63.54 44.64 50.1
04/29/05 21:34 62.17 45.2 53.7
04/29/05 22:04 60.8 44.92 55.8
04/29/05 22:34 60.11 44.98 57.3
04/29/05 23:04 58.73 44.2 58.4
04/29/05 23:34 58.04 44.42 60.4
04/30/05 00:04 57.35 44.46 62
04/30/05 00:34 55.97 44.24 64.6
04/30/05 01:04 53.89 44 69.1
04/30/05 01:34 53.89 44.6 70.7
04/30/05 02:04 53.19 43.72 70.1
04/30/05 02:34 53.89 44.6 70.7
04/30/05 03:04 52.49 43.04 70.1
04/30/05 03:34 51.08 42.6 72.6
04/30/05 04:04 51.79 39 61.5
04/30/05 04:34 50.38 39.52 66.1
04/30/05 05:04 50.38 38.48 63.5
04/30/05 05:34 48.96 38.74 67.6
04/30/05 06:04 49.67 39.02 66.6
04/30/05 06:34 48.25 38.42 68.6
04/30/05 07:04 46.82 37.42 69.6
04/30/05 07:34 51.79 35.8 54.2
04/30/05 08:04 53.19 37.1 54.2
04/30/05 08:34 57.35 35.02 42.9
04/30/05 09:04 69.02 34.24 27.6
04/30/05 09:34 72.46 30.12 20.8
04/30/05 10:04 74.53 28.16 17.9
04/30/05 10:34 76.62 26.2 15.4
04/30/05 11:04 78.01 24.16 13.5
04/30/05 11:34 80.12 23 12
04/30/05 12:04 80.82 20.4 10.5
04/30/05 12:34 84.38 19.74 9.1
04/30/05 13:04 85.1 18.7 8.5
04/30/05 13:34 87.28 19.18 8.1
04/30/05 14:04 88.01 19.72 8.1
04/30/05 14:34 88.74 16.54 6.9
04/30/05 15:04 84.38 33.02 15.8
04/30/05 15:34 84.38 33.02 15.8
04/30/05 16:04 82.95 34.42 17.5
04/30/05 16:34 84.38 33.66 16.2
04/30/05 17:04 82.95 32.5 16.2
04/30/05 17:34 82.24 32.54 16.6
04/30/05 18:04 81.53 30.12 15.4
04/30/05 18:34 79.41 27.8 15
04/30/05 19:04 78.01 30.98 17.9
04/30/05 19:34 75.22 31.94 20.4
04/30/05 20:04 72.46 32.6 23
04/30/05 20:34 70.39 32.34 24.4
04/30/05 21:04 69.02 32.94 26.2
04/30/05 21:34 68.33 31.88 25.7
04/30/05 22:04 66.96 32.92 28.1
04/30/05 22:34 65.59 33.38 30
04/30/05 23:04 64.22 34.78 33.3
04/30/05 23:34 62.85 37.1 38.3